sensor_id;sensor_type;location;lat;lon;timestamp;temperature;humidity
21001;DHT22;10658;50.920;12.238;2023-11-21T00:02:13;8.10;99.90
21001;DHT22;10658;50.920;12.238;2023-11-21T00:06:14;8.20;99.90
21001;DHT22;10658;50.920;12.238;2023-11-21T00:10:15;8.10;99.90
21001;DHT22;10658;50.920;12.238;2023-11-21T00:14:16;8.10;99.90
21001;DHT22;10658;50.920;12.238;2023-11-21T00:18:17;8.10;99.90
21001;DHT22;10658;50.920;12.238;2023-11-21T00:22:18;8.00;99.90
21001;DHT22;10658;50.920;12.238;2023-11-21T00:26:19;8.10;99.90
21001;DHT22;10658;50.920;12.238;2023-11-21T00:30:27;8.00;99.90
21001;DHT22;10658;50.920;12.238;2023-11-21T00:34:29;8.00;99.90
21001;DHT22;10658;50.920;12.238;2023-11-21T00:38:30;8.00;99.90
21001;DHT22;10658;50.920;12.238;2023-11-21T00:42:32;8.00;99.90
21001;DHT22;10658;50.920;12.238;2023-11-21T00:46:34;8.00;99.90
21001;DHT22;10658;50.920;12.238;2023-11-21T00:50:35;8.00;99.90
21001;DHT22;10658;50.920;12.238;2023-11-21T00:54:36;8.00;99.90
21001;DHT22;10658;50.920;12.238;2023-11-21T00:58:36;8.00;99.90
21001;DHT22;10658;50.920;12.238;2023-11-21T01:02:37;7.90;99.90
21001;DHT22;10658;50.920;12.238;2023-11-21T01:06:38;7.90;99.90
21001;DHT22;10658;50.920;12.238;2023-11-21T01:10:39;7.80;99.90
21001;DHT22;10658;50.920;12.238;2023-11-21T01:14:40;7.70;99.90
21001;DHT22;10658;50.920;12.238;2023-11-21T01:18:41;7.70;99.90
21001;DHT22;10658;50.920;12.238;2023-11-21T01:22:42;7.70;99.90
21001;DHT22;10658;50.920;12.238;2023-11-21T01:26:43;7.60;99.90
21001;DHT22;10658;50.920;12.238;2023-11-21T01:30:46;7.60;99.90
21001;DHT22;10658;50.920;12.238;2023-11-21T01:34:47;7.70;99.90
21001;DHT22;10658;50.920;12.238;2023-11-21T01:38:48;7.70;99.90
21001;DHT22;10658;50.920;12.238;2023-11-21T01:42:50;7.70;99.90
21001;DHT22;10658;50.920;12.238;2023-11-21T01:46:51;7.70;99.90
21001;DHT22;10658;50.920;12.238;2023-11-21T01:50:52;7.70;99.90
21001;DHT22;10658;50.920;12.238;2023-11-21T01:54:53;7.60;99.90
21001;DHT22;10658;50.920;12.238;2023-11-21T01:58:55;7.60;99.90
21001;DHT22;10658;50.920;12.238;2023-11-21T02:02:55;7.60;99.90
21001;DHT22;10658;50.920;12.238;2023-11-21T02:06:57;7.60;99.90
21001;DHT22;10658;50.920;12.238;2023-11-21T02:10:58;7.60;99.90
21001;DHT22;10658;50.920;12.238;2023-11-21T02:14:59;7.60;99.90
21001;DHT22;10658;50.920;12.238;2023-11-21T02:19:01;7.60;99.90
21001;DHT22;10658;50.920;12.238;2023-11-21T02:23:02;7.60;99.90
21001;DHT22;10658;50.920;12.238;2023-11-21T02:27:03;7.60;99.90
21001;DHT22;10658;50.920;12.238;2023-11-21T02:31:04;7.70;99.90
21001;DHT22;10658;50.920;12.238;2023-11-21T02:35:05;7.80;99.90
21001;DHT22;10658;50.920;12.238;2023-11-21T02:39:09;7.70;99.90
21001;DHT22;10658;50.920;12.238;2023-11-21T02:43:11;7.70;99.90
21001;DHT22;10658;50.920;12.238;2023-11-21T02:47:11;7.60;99.90
21001;DHT22;10658;50.920;12.238;2023-11-21T02:51:12;7.70;99.90
21001;DHT22;10658;50.920;12.238;2023-11-21T02:55:14;7.70;99.90
21001;DHT22;10658;50.920;12.238;2023-11-21T02:59:15;7.80;99.90
21001;DHT22;10658;50.920;12.238;2023-11-21T03:03:16;7.80;99.90
21001;DHT22;10658;50.920;12.238;2023-11-21T03:07:17;7.80;99.90
21001;DHT22;10658;50.920;12.238;2023-11-21T03:11:22;7.80;99.90
21001;DHT22;10658;50.920;12.238;2023-11-21T03:15:23;7.80;99.90
21001;DHT22;10658;50.920;12.238;2023-11-21T03:19:23;7.80;99.90
21001;DHT22;10658;50.920;12.238;2023-11-21T03:23:24;7.70;99.90
21001;DHT22;10658;50.920;12.238;2023-11-21T03:27:25;7.70;99.90
21001;DHT22;10658;50.920;12.238;2023-11-21T03:31:26;7.70;99.90
21001;DHT22;10658;50.920;12.238;2023-11-21T03:35:27;7.70;99.90
21001;DHT22;10658;50.920;12.238;2023-11-21T03:39:28;7.70;99.90
21001;DHT22;10658;50.920;12.238;2023-11-21T03:43:30;7.70;99.90
21001;DHT22;10658;50.920;12.238;2023-11-21T03:47:30;7.70;99.90
21001;DHT22;10658;50.920;12.238;2023-11-21T03:51:32;7.60;99.90
21001;DHT22;10658;50.920;12.238;2023-11-21T03:55:33;7.70;99.90
21001;DHT22;10658;50.920;12.238;2023-11-21T03:59:34;7.60;99.90
21001;DHT22;10658;50.920;12.238;2023-11-21T04:03:35;7.60;99.90
21001;DHT22;10658;50.920;12.238;2023-11-21T04:07:36;7.60;99.90
21001;DHT22;10658;50.920;12.238;2023-11-21T04:11:38;7.70;99.90
21001;DHT22;10658;50.920;12.238;2023-11-21T04:15:39;7.70;99.90
21001;DHT22;10658;50.920;12.238;2023-11-21T04:19:40;7.70;99.90
21001;DHT22;10658;50.920;12.238;2023-11-21T04:23:42;7.70;99.90
21001;DHT22;10658;50.920;12.238;2023-11-21T04:27:44;7.60;99.90
21001;DHT22;10658;50.920;12.238;2023-11-21T04:31:45;7.60;99.90
21001;DHT22;10658;50.920;12.238;2023-11-21T04:35:46;7.60;99.90
21001;DHT22;10658;50.920;12.238;2023-11-21T04:39:48;7.60;99.90
21001;DHT22;10658;50.920;12.238;2023-11-21T04:43:48;7.60;99.90
21001;DHT22;10658;50.920;12.238;2023-11-21T04:47:49;7.60;99.90
21001;DHT22;10658;50.920;12.238;2023-11-21T04:51:50;7.60;99.90
21001;DHT22;10658;50.920;12.238;2023-11-21T04:55:51;7.60;99.90
21001;DHT22;10658;50.920;12.238;2023-11-21T04:59:52;7.60;99.90
21001;DHT22;10658;50.920;12.238;2023-11-21T05:03:52;7.50;99.90
21001;DHT22;10658;50.920;12.238;2023-11-21T05:07:53;7.40;99.90
21001;DHT22;10658;50.920;12.238;2023-11-21T05:11:54;7.30;99.90
21001;DHT22;10658;50.920;12.238;2023-11-21T05:15:55;7.10;99.90
21001;DHT22;10658;50.920;12.238;2023-11-21T05:19:59;7.00;99.90
21001;DHT22;10658;50.920;12.238;2023-11-21T05:24:00;6.90;99.90
21001;DHT22;10658;50.920;12.238;2023-11-21T05:28:01;6.70;99.90
21001;DHT22;10658;50.920;12.238;2023-11-21T05:32:03;6.60;99.90
21001;DHT22;10658;50.920;12.238;2023-11-21T05:36:04;6.50;99.90
21001;DHT22;10658;50.920;12.238;2023-11-21T05:40:09;6.40;99.90
21001;DHT22;10658;50.920;12.238;2023-11-21T05:44:10;6.30;99.90
21001;DHT22;10658;50.920;12.238;2023-11-21T05:48:11;6.20;99.90
21001;DHT22;10658;50.920;12.238;2023-11-21T05:52:12;6.00;99.90
21001;DHT22;10658;50.920;12.238;2023-11-21T05:56:12;5.90;99.90
21001;DHT22;10658;50.920;12.238;2023-11-21T06:00:14;5.90;99.90
21001;DHT22;10658;50.920;12.238;2023-11-21T06:04:19;5.80;99.90
21001;DHT22;10658;50.920;12.238;2023-11-21T06:08:22;5.70;99.90
21001;DHT22;10658;50.920;12.238;2023-11-21T06:12:23;5.70;99.90
21001;DHT22;10658;50.920;12.238;2023-11-21T06:16:24;5.70;99.90
21001;DHT22;10658;50.920;12.238;2023-11-21T06:20:25;5.70;99.90
21001;DHT22;10658;50.920;12.238;2023-11-21T06:24:26;5.60;99.90
21001;DHT22;10658;50.920;12.238;2023-11-21T06:28:26;5.60;99.90
21001;DHT22;10658;50.920;12.238;2023-11-21T06:32:27;5.60;99.90
21001;DHT22;10658;50.920;12.238;2023-11-21T06:36:30;5.60;99.90
21001;DHT22;10658;50.920;12.238;2023-11-21T06:40:31;5.50;99.90
21001;DHT22;10658;50.920;12.238;2023-11-21T06:44:34;5.50;99.90
21001;DHT22;10658;50.920;12.238;2023-11-21T06:48:36;5.50;99.90
21001;DHT22;10658;50.920;12.238;2023-11-21T06:52:39;5.50;99.90
21001;DHT22;10658;50.920;12.238;2023-11-21T06:56:39;5.60;99.90
21001;DHT22;10658;50.920;12.238;2023-11-21T07:00:41;5.80;99.90
21001;DHT22;10658;50.920;12.238;2023-11-21T07:04:47;5.80;99.90
21001;DHT22;10658;50.920;12.238;2023-11-21T07:08:47;5.90;99.90
21001;DHT22;10658;50.920;12.238;2023-11-21T07:12:48;6.00;99.90
21001;DHT22;10658;50.920;12.238;2023-11-21T07:16:49;6.10;99.90
21001;DHT22;10658;50.920;12.238;2023-11-21T07:20:50;6.00;99.90
21001;DHT22;10658;50.920;12.238;2023-11-21T07:24:51;6.10;99.90
21001;DHT22;10658;50.920;12.238;2023-11-21T07:28:52;6.20;99.90
21001;DHT22;10658;50.920;12.238;2023-11-21T07:32:53;6.20;99.90
21001;DHT22;10658;50.920;12.238;2023-11-21T07:36:54;6.30;99.90
21001;DHT22;10658;50.920;12.238;2023-11-21T07:40:55;6.50;99.90
21001;DHT22;10658;50.920;12.238;2023-11-21T07:44:56;6.50;99.90
21001;DHT22;10658;50.920;12.238;2023-11-21T07:48:57;6.60;99.90
21001;DHT22;10658;50.920;12.238;2023-11-21T07:52:58;6.60;99.90
21001;DHT22;10658;50.920;12.238;2023-11-21T07:56:59;6.70;99.90
21001;DHT22;10658;50.920;12.238;2023-11-21T08:05:28;6.80;99.90
21001;DHT22;10658;50.920;12.238;2023-11-21T08:09:37;6.80;99.90
21001;DHT22;10658;50.920;12.238;2023-11-21T08:14:18;6.80;99.90
21001;DHT22;10658;50.920;12.238;2023-11-21T08:18:26;6.80;99.90
21001;DHT22;10658;50.920;12.238;2023-11-21T08:22:27;6.90;99.90
21001;DHT22;10658;50.920;12.238;2023-11-21T08:26:28;6.90;99.90
21001;DHT22;10658;50.920;12.238;2023-11-21T08:30:29;7.00;99.90
21001;DHT22;10658;50.920;12.238;2023-11-21T08:34:31;7.00;99.90
21001;DHT22;10658;50.920;12.238;2023-11-21T08:38:32;7.00;99.90
21001;DHT22;10658;50.920;12.238;2023-11-21T08:42:34;7.10;99.90
21001;DHT22;10658;50.920;12.238;2023-11-21T08:46:35;7.10;99.90
21001;DHT22;10658;50.920;12.238;2023-11-21T08:50:37;7.10;99.90
21001;DHT22;10658;50.920;12.238;2023-11-21T08:54:39;7.20;99.90
21001;DHT22;10658;50.920;12.238;2023-11-21T08:59:21;7.20;99.90
21001;DHT22;10658;50.920;12.238;2023-11-21T09:03:22;7.30;99.90
21001;DHT22;10658;50.920;12.238;2023-11-21T09:07:22;7.30;99.90
21001;DHT22;10658;50.920;12.238;2023-11-21T09:11:23;7.40;99.90
21001;DHT22;10658;50.920;12.238;2023-11-21T09:15:25;7.40;99.90
21001;DHT22;10658;50.920;12.238;2023-11-21T09:19:26;7.50;99.90
21001;DHT22;10658;50.920;12.238;2023-11-21T09:23:27;7.50;99.90
21001;DHT22;10658;50.920;12.238;2023-11-21T09:27:38;7.50;99.90
21001;DHT22;10658;50.920;12.238;2023-11-21T09:31:39;7.40;99.90
21001;DHT22;10658;50.920;12.238;2023-11-21T09:35:40;7.50;99.90
21001;DHT22;10658;50.920;12.238;2023-11-21T09:39:41;7.50;99.90
21001;DHT22;10658;50.920;12.238;2023-11-21T09:43:42;7.40;99.90
21001;DHT22;10658;50.920;12.238;2023-11-21T09:47:44;7.50;99.90
21001;DHT22;10658;50.920;12.238;2023-11-21T09:51:55;7.40;99.90
21001;DHT22;10658;50.920;12.238;2023-11-21T09:55:57;7.50;99.90
21001;DHT22;10658;50.920;12.238;2023-11-21T10:14:37;7.50;99.90
21001;DHT22;10658;50.920;12.238;2023-11-21T10:18:56;7.50;99.90
21001;DHT22;10658;50.920;12.238;2023-11-21T10:23:41;7.60;99.90
21001;DHT22;10658;50.920;12.238;2023-11-21T10:27:42;7.60;99.90
21001;DHT22;10658;50.920;12.238;2023-11-21T10:31:52;7.60;99.90
21001;DHT22;10658;50.920;12.238;2023-11-21T10:35:55;7.70;99.90
21001;DHT22;10658;50.920;12.238;2023-11-21T10:39:59;7.70;99.90
21001;DHT22;10658;50.920;12.238;2023-11-21T10:44:00;7.90;99.90
21001;DHT22;10658;50.920;12.238;2023-11-21T10:48:01;7.90;99.90
21001;DHT22;10658;50.920;12.238;2023-11-21T11:02:21;7.90;99.90
21001;DHT22;10658;50.920;12.238;2023-11-21T11:06:33;8.00;99.90
21001;DHT22;10658;50.920;12.238;2023-11-21T11:11:15;8.00;99.90
21001;DHT22;10658;50.920;12.238;2023-11-21T11:16:12;8.10;99.90
21001;DHT22;10658;50.920;12.238;2023-11-21T11:20:27;8.10;99.90
21001;DHT22;10658;50.920;12.238;2023-11-21T11:34:24;7.90;99.90
21001;DHT22;10658;50.920;12.238;2023-11-21T11:38:35;7.90;99.90
21001;DHT22;10658;50.920;12.238;2023-11-21T11:43:26;7.80;99.90
21001;DHT22;10658;50.920;12.238;2023-11-21T11:48:13;7.70;99.90
21001;DHT22;10658;50.920;12.238;2023-11-21T11:53:15;7.70;99.90
21001;DHT22;10658;50.920;12.238;2023-11-21T12:02:28;7.70;99.90
21001;DHT22;10658;50.920;12.238;2023-11-21T12:06:35;7.70;99.90
21001;DHT22;10658;50.920;12.238;2023-11-21T12:10:38;7.70;99.90
21001;DHT22;10658;50.920;12.238;2023-11-21T12:14:40;7.70;99.90
21001;DHT22;10658;50.920;12.238;2023-11-21T12:18:41;7.60;99.90
21001;DHT22;10658;50.920;12.238;2023-11-21T12:22:46;7.60;99.90
21001;DHT22;10658;50.920;12.238;2023-11-21T12:26:50;7.50;99.90
21001;DHT22;10658;50.920;12.238;2023-11-21T12:30:51;7.50;99.90
21001;DHT22;10658;50.920;12.238;2023-11-21T12:34:52;7.30;99.90
21001;DHT22;10658;50.920;12.238;2023-11-21T12:38:54;7.20;99.90
21001;DHT22;10658;50.920;12.238;2023-11-21T12:42:56;7.20;99.90
21001;DHT22;10658;50.920;12.238;2023-11-21T12:46:57;7.10;99.90
21001;DHT22;10658;50.920;12.238;2023-11-21T12:50:59;7.10;99.90
21001;DHT22;10658;50.920;12.238;2023-11-21T12:55:03;7.10;99.90
21001;DHT22;10658;50.920;12.238;2023-11-21T12:59:04;7.00;99.90
21001;DHT22;10658;50.920;12.238;2023-11-21T13:03:06;7.00;99.90
21001;DHT22;10658;50.920;12.238;2023-11-21T13:07:07;6.90;99.90
21001;DHT22;10658;50.920;12.238;2023-11-21T13:11:13;6.90;99.90
21001;DHT22;10658;50.920;12.238;2023-11-21T13:15:15;6.80;99.90
21001;DHT22;10658;50.920;12.238;2023-11-21T13:19:18;6.70;99.90
21001;DHT22;10658;50.920;12.238;2023-11-21T13:23:22;6.70;99.90
21001;DHT22;10658;50.920;12.238;2023-11-21T13:27:24;6.60;99.90
21001;DHT22;10658;50.920;12.238;2023-11-21T13:31:26;6.60;99.90
21001;DHT22;10658;50.920;12.238;2023-11-21T13:35:36;6.60;99.90
21001;DHT22;10658;50.920;12.238;2023-11-21T13:39:43;6.60;99.90
21001;DHT22;10658;50.920;12.238;2023-11-21T13:43:46;6.60;99.90
21001;DHT22;10658;50.920;12.238;2023-11-21T13:47:54;6.60;99.90
21001;DHT22;10658;50.920;12.238;2023-11-21T13:52:01;6.60;99.90
21001;DHT22;10658;50.920;12.238;2023-11-21T13:56:04;6.50;99.90
21001;DHT22;10658;50.920;12.238;2023-11-21T14:00:06;6.60;99.90
21001;DHT22;10658;50.920;12.238;2023-11-21T14:04:13;6.60;99.90
21001;DHT22;10658;50.920;12.238;2023-11-21T14:08:18;6.50;99.90
21001;DHT22;10658;50.920;12.238;2023-11-21T14:12:20;6.40;99.90
21001;DHT22;10658;50.920;12.238;2023-11-21T14:16:22;6.20;99.90
21001;DHT22;10658;50.920;12.238;2023-11-21T14:20:23;6.20;99.90
21001;DHT22;10658;50.920;12.238;2023-11-21T14:24:24;6.10;99.90
21001;DHT22;10658;50.920;12.238;2023-11-21T14:28:26;5.90;99.90
21001;DHT22;10658;50.920;12.238;2023-11-21T14:32:26;5.90;99.90
21001;DHT22;10658;50.920;12.238;2023-11-21T14:36:28;5.60;99.90
21001;DHT22;10658;50.920;12.238;2023-11-21T14:40:29;5.40;99.90
21001;DHT22;10658;50.920;12.238;2023-11-21T14:44:33;5.20;99.90
21001;DHT22;10658;50.920;12.238;2023-11-21T14:48:39;5.20;99.90
21001;DHT22;10658;50.920;12.238;2023-11-21T14:52:43;5.10;99.90
21001;DHT22;10658;50.920;12.238;2023-11-21T14:56:56;5.00;99.90
21001;DHT22;10658;50.920;12.238;2023-11-21T15:00:58;4.90;99.90
21001;DHT22;10658;50.920;12.238;2023-11-21T15:04:59;4.80;99.90
21001;DHT22;10658;50.920;12.238;2023-11-21T15:09:03;4.80;99.90
21001;DHT22;10658;50.920;12.238;2023-11-21T15:13:09;4.80;99.90
21001;DHT22;10658;50.920;12.238;2023-11-21T15:17:13;4.80;99.90
21001;DHT22;10658;50.920;12.238;2023-11-21T15:21:25;4.70;99.90
21001;DHT22;10658;50.920;12.238;2023-11-21T15:25:25;4.70;99.90
21001;DHT22;10658;50.920;12.238;2023-11-21T15:29:26;4.60;99.90
21001;DHT22;10658;50.920;12.238;2023-11-21T15:33:28;4.60;99.90
21001;DHT22;10658;50.920;12.238;2023-11-21T15:37:29;4.70;99.90
21001;DHT22;10658;50.920;12.238;2023-11-21T15:41:29;4.70;99.90
21001;DHT22;10658;50.920;12.238;2023-11-21T15:45:30;4.60;99.90
21001;DHT22;10658;50.920;12.238;2023-11-21T15:49:31;4.50;99.90
21001;DHT22;10658;50.920;12.238;2023-11-21T15:53:35;4.50;99.90
21001;DHT22;10658;50.920;12.238;2023-11-21T15:57:36;4.50;99.90
21001;DHT22;10658;50.920;12.238;2023-11-21T16:01:37;4.50;99.90
21001;DHT22;10658;50.920;12.238;2023-11-21T16:05:43;4.50;99.90
21001;DHT22;10658;50.920;12.238;2023-11-21T16:09:44;4.50;99.90
21001;DHT22;10658;50.920;12.238;2023-11-21T16:13:45;4.50;99.90
21001;DHT22;10658;50.920;12.238;2023-11-21T16:17:46;4.50;99.90
21001;DHT22;10658;50.920;12.238;2023-11-21T16:21:48;4.50;99.90
21001;DHT22;10658;50.920;12.238;2023-11-21T16:25:49;4.50;99.90
21001;DHT22;10658;50.920;12.238;2023-11-21T16:29:55;4.60;99.90
21001;DHT22;10658;50.920;12.238;2023-11-21T16:33:56;4.50;99.90
21001;DHT22;10658;50.920;12.238;2023-11-21T16:37:57;4.50;99.90
21001;DHT22;10658;50.920;12.238;2023-11-21T16:41:59;4.50;99.90
21001;DHT22;10658;50.920;12.238;2023-11-21T16:46:00;4.50;99.90
21001;DHT22;10658;50.920;12.238;2023-11-21T16:50:01;4.40;99.90
21001;DHT22;10658;50.920;12.238;2023-11-21T16:54:03;4.40;99.90
21001;DHT22;10658;50.920;12.238;2023-11-21T16:58:04;4.50;99.90
21001;DHT22;10658;50.920;12.238;2023-11-21T17:02:05;4.40;99.90
21001;DHT22;10658;50.920;12.238;2023-11-21T17:06:06;4.30;99.90
21001;DHT22;10658;50.920;12.238;2023-11-21T17:10:07;4.30;99.90
21001;DHT22;10658;50.920;12.238;2023-11-21T17:14:10;4.20;99.90
21001;DHT22;10658;50.920;12.238;2023-11-21T17:18:12;4.30;99.90
21001;DHT22;10658;50.920;12.238;2023-11-21T17:22:13;4.30;99.90
21001;DHT22;10658;50.920;12.238;2023-11-21T17:26:14;4.30;99.90
21001;DHT22;10658;50.920;12.238;2023-11-21T17:30:16;4.30;99.90
21001;DHT22;10658;50.920;12.238;2023-11-21T17:34:17;4.30;99.90
21001;DHT22;10658;50.920;12.238;2023-11-21T17:38:19;4.30;99.90
21001;DHT22;10658;50.920;12.238;2023-11-21T17:42:20;4.30;99.90
21001;DHT22;10658;50.920;12.238;2023-11-21T17:46:22;4.20;99.90
21001;DHT22;10658;50.920;12.238;2023-11-21T17:50:23;4.10;99.90
21001;DHT22;10658;50.920;12.238;2023-11-21T17:54:24;4.00;99.90
21001;DHT22;10658;50.920;12.238;2023-11-21T17:58:25;4.00;99.90
21001;DHT22;10658;50.920;12.238;2023-11-21T18:02:26;4.10;99.90
21001;DHT22;10658;50.920;12.238;2023-11-21T18:06:29;4.10;99.90
21001;DHT22;10658;50.920;12.238;2023-11-21T18:10:30;4.10;99.90
21001;DHT22;10658;50.920;12.238;2023-11-21T18:14:30;4.00;99.90
21001;DHT22;10658;50.920;12.238;2023-11-21T18:18:31;4.00;99.90
21001;DHT22;10658;50.920;12.238;2023-11-21T18:22:32;4.00;99.90
21001;DHT22;10658;50.920;12.238;2023-11-21T18:26:33;3.90;99.90
21001;DHT22;10658;50.920;12.238;2023-11-21T18:30:34;3.90;99.90
21001;DHT22;10658;50.920;12.238;2023-11-21T18:34:35;3.80;99.90
21001;DHT22;10658;50.920;12.238;2023-11-21T18:38:38;3.80;99.90
21001;DHT22;10658;50.920;12.238;2023-11-21T18:42:39;3.70;99.90
21001;DHT22;10658;50.920;12.238;2023-11-21T18:46:40;3.80;99.90
21001;DHT22;10658;50.920;12.238;2023-11-21T18:50:41;3.70;99.90
21001;DHT22;10658;50.920;12.238;2023-11-21T18:54:42;3.70;99.90
21001;DHT22;10658;50.920;12.238;2023-11-21T18:58:44;3.80;99.90
21001;DHT22;10658;50.920;12.238;2023-11-21T19:02:44;3.80;99.90
21001;DHT22;10658;50.920;12.238;2023-11-21T19:06:46;3.80;99.90
21001;DHT22;10658;50.920;12.238;2023-11-21T19:10:47;3.70;99.90
21001;DHT22;10658;50.920;12.238;2023-11-21T19:14:48;3.70;99.90
21001;DHT22;10658;50.920;12.238;2023-11-21T19:18:52;3.60;99.90
21001;DHT22;10658;50.920;12.238;2023-11-21T19:22:53;3.60;99.90
21001;DHT22;10658;50.920;12.238;2023-11-21T19:26:54;3.60;99.90
21001;DHT22;10658;50.920;12.238;2023-11-21T19:30:55;3.60;99.90
21001;DHT22;10658;50.920;12.238;2023-11-21T19:34:57;3.60;99.90
21001;DHT22;10658;50.920;12.238;2023-11-21T19:38:58;3.60;99.90
21001;DHT22;10658;50.920;12.238;2023-11-21T19:43:00;3.50;99.90
21001;DHT22;10658;50.920;12.238;2023-11-21T19:47:01;3.40;99.90
21001;DHT22;10658;50.920;12.238;2023-11-21T19:51:03;3.40;99.90
21001;DHT22;10658;50.920;12.238;2023-11-21T19:55:06;3.40;99.90
21001;DHT22;10658;50.920;12.238;2023-11-21T19:59:09;3.30;99.90
21001;DHT22;10658;50.920;12.238;2023-11-21T20:03:10;3.30;99.90
21001;DHT22;10658;50.920;12.238;2023-11-21T20:07:10;3.20;99.90
21001;DHT22;10658;50.920;12.238;2023-11-21T20:11:11;3.20;99.90
21001;DHT22;10658;50.920;12.238;2023-11-21T20:15:12;3.10;99.90
21001;DHT22;10658;50.920;12.238;2023-11-21T20:19:13;2.90;99.90
21001;DHT22;10658;50.920;12.238;2023-11-21T20:23:14;2.80;99.90
21001;DHT22;10658;50.920;12.238;2023-11-21T20:27:18;2.70;99.90
21001;DHT22;10658;50.920;12.238;2023-11-21T20:31:20;2.60;99.90
21001;DHT22;10658;50.920;12.238;2023-11-21T20:35:21;2.60;99.90
21001;DHT22;10658;50.920;12.238;2023-11-21T20:39:22;2.50;99.90
21001;DHT22;10658;50.920;12.238;2023-11-21T20:43:24;2.50;99.90
21001;DHT22;10658;50.920;12.238;2023-11-21T20:47:24;2.50;99.90
21001;DHT22;10658;50.920;12.238;2023-11-21T20:51:26;2.40;99.90
21001;DHT22;10658;50.920;12.238;2023-11-21T20:55:26;2.40;99.90
21001;DHT22;10658;50.920;12.238;2023-11-21T20:59:28;2.30;99.90
21001;DHT22;10658;50.920;12.238;2023-11-21T21:03:29;2.20;99.90
21001;DHT22;10658;50.920;12.238;2023-11-21T21:07:29;2.10;99.90
21001;DHT22;10658;50.920;12.238;2023-11-21T21:11:31;2.00;99.90
21001;DHT22;10658;50.920;12.238;2023-11-21T21:15:32;2.00;99.90
21001;DHT22;10658;50.920;12.238;2023-11-21T21:19:33;2.00;99.90
21001;DHT22;10658;50.920;12.238;2023-11-21T21:23:34;2.00;99.90
21001;DHT22;10658;50.920;12.238;2023-11-21T21:27:35;1.90;99.90
21001;DHT22;10658;50.920;12.238;2023-11-21T21:31:36;1.90;99.90
21001;DHT22;10658;50.920;12.238;2023-11-21T21:35:37;1.80;99.90
21001;DHT22;10658;50.920;12.238;2023-11-21T21:39:39;1.80;99.90
21001;DHT22;10658;50.920;12.238;2023-11-21T21:43:40;1.80;99.90
21001;DHT22;10658;50.920;12.238;2023-11-21T21:47:41;1.80;99.90
21001;DHT22;10658;50.920;12.238;2023-11-21T21:51:42;1.80;99.90
21001;DHT22;10658;50.920;12.238;2023-11-21T21:55:43;1.70;99.90
21001;DHT22;10658;50.920;12.238;2023-11-21T21:59:43;1.70;99.90
21001;DHT22;10658;50.920;12.238;2023-11-21T22:03:44;1.70;99.90
21001;DHT22;10658;50.920;12.238;2023-11-21T22:07:45;1.60;99.90
21001;DHT22;10658;50.920;12.238;2023-11-21T22:11:46;1.60;99.90
21001;DHT22;10658;50.920;12.238;2023-11-21T22:15:47;1.60;99.90
21001;DHT22;10658;50.920;12.238;2023-11-21T22:19:47;1.60;99.90
21001;DHT22;10658;50.920;12.238;2023-11-21T22:23:49;1.50;99.90
21001;DHT22;10658;50.920;12.238;2023-11-21T22:27:51;1.60;99.90
21001;DHT22;10658;50.920;12.238;2023-11-21T22:31:53;1.50;99.90
21001;DHT22;10658;50.920;12.238;2023-11-21T22:35:54;1.50;99.90
21001;DHT22;10658;50.920;12.238;2023-11-21T22:39:55;1.50;99.90
21001;DHT22;10658;50.920;12.238;2023-11-21T22:43:56;1.50;99.90
21001;DHT22;10658;50.920;12.238;2023-11-21T22:47:57;1.50;99.90
21001;DHT22;10658;50.920;12.238;2023-11-21T22:51:58;1.50;99.90
21001;DHT22;10658;50.920;12.238;2023-11-21T22:55:59;1.50;99.90
21001;DHT22;10658;50.920;12.238;2023-11-21T23:00:00;1.60;99.90
21001;DHT22;10658;50.920;12.238;2023-11-21T23:04:00;1.60;99.90
21001;DHT22;10658;50.920;12.238;2023-11-21T23:08:04;1.50;99.90
21001;DHT22;10658;50.920;12.238;2023-11-21T23:12:05;1.50;99.90
21001;DHT22;10658;50.920;12.238;2023-11-21T23:16:06;1.50;99.90
21001;DHT22;10658;50.920;12.238;2023-11-21T23:20:08;1.50;99.90
21001;DHT22;10658;50.920;12.238;2023-11-21T23:24:10;1.50;99.90
21001;DHT22;10658;50.920;12.238;2023-11-21T23:28:11;1.60;99.90
21001;DHT22;10658;50.920;12.238;2023-11-21T23:32:12;1.50;99.90
21001;DHT22;10658;50.920;12.238;2023-11-21T23:36:14;1.60;99.90
21001;DHT22;10658;50.920;12.238;2023-11-21T23:40:17;1.50;99.90
21001;DHT22;10658;50.920;12.238;2023-11-21T23:44:18;1.50;99.90
21001;DHT22;10658;50.920;12.238;2023-11-21T23:48:19;1.50;99.90
21001;DHT22;10658;50.920;12.238;2023-11-21T23:52:20;1.40;99.90
21001;DHT22;10658;50.920;12.238;2023-11-21T23:56:22;1.30;99.90
